Time;durP1;ratioP1;P1;durP2;ratioP2;P2;SDS_P1;SDS_P2;PMS_P1;PMS_P2;Temp;Humidity;BMP_temperature;BMP_pressure;BME280_temperature;BME280_humidity;BME280_pressure;Samples;Min_cycle;Max_cycle;Signal;HPM_P1;HPM_P2
2023/06/18 00:00:13;;;;;;;29.00;15.70;;;;;;;14.42;100.00;98625.17;136115;1274;22530;-59
2023/06/18 00:03:36;;;;;;;31.50;16.10;;;;;;;14.34;100.00;98626.32;136087;1274;22512;-60
2023/06/18 00:06:38;;;;;;;;;;;;;;;14.31;100.00;98624.48;136061;1274;22498;-60
2023/06/18 00:09:41;;;;;;;32.70;18.20;;;;;;;14.35;100.00;98619.51;136012;1274;22962;-60
2023/06/18 00:12:43;;;;;;;;;;;;;;;14.37;100.00;98616.08;136052;1274;22511;-61
2023/06/18 00:15:45;;;;;;;33.80;18.40;;;;;;;14.40;100.00;98615.63;136010;1274;22533;-59
2023/06/18 00:18:48;;;;;;;;;;;;;;;14.42;100.00;98613.58;136094;1274;22524;-60
2023/06/18 00:21:50;;;;;;;29.70;16.60;;;;;;;14.31;100.00;98612.34;136127;1274;22533;-58
2023/06/18 00:24:53;;;;;;;30.60;16.70;;;;;;;14.17;100.00;98611.52;136100;1274;22511;-57
2023/06/18 00:27:55;;;;;;;;;;;;;;;14.11;100.00;98616.05;136126;1274;22527;-61
2023/06/18 00:30:58;;;;;;;34.10;15.90;;;;;;;14.11;100.00;98615.15;136119;1257;22521;-57
2023/06/18 00:34:05;;;;;;;;;;;;;;;14.09;100.00;98617.27;136119;1274;22516;-59
2023/06/18 00:37:09;;;;;;;32.50;16.70;;;;;;;14.06;100.00;98614.62;136120;1274;22550;-61
2023/06/18 00:40:12;;;;;;;33.50;16.70;;;;;;;13.93;100.00;98620.38;136087;1274;25226;-60
2023/06/18 00:43:14;;;;;;;31.90;16.40;;;;;;;13.80;100.00;98621.41;136030;1274;23322;-57
2023/06/18 00:46:18;;;;;;;;;;;;;;;13.72;100.00;98622.03;136000;1274;22521;-57
2023/06/18 00:49:21;;;;;;;29.70;13.30;;;;;;;13.68;100.00;98620.05;136108;1274;22626;-57
2023/06/18 00:52:23;;;;;;;28.30;14.60;;;;;;;13.58;100.00;98623.09;136034;1274;22651;-56
2023/06/18 00:55:27;;;;;;;30.60;14.30;;;;;;;13.54;100.00;98621.66;136087;1274;22570;-57
2023/06/18 00:58:31;;;;;;;28.40;15.50;;;;;;;13.64;100.00;98622.27;136017;1274;25446;-65
2023/06/18 01:01:36;;;;;;;30.00;17.10;;;;;;;13.77;100.00;98624.24;136058;1274;22548;-65
2023/06/18 01:04:38;;;;;;;30.10;17.50;;;;;;;13.94;100.00;98624.86;136062;1274;22520;-63
2023/06/18 01:07:41;;;;;;;;;;;;;;;13.93;100.00;98629.05;136052;1274;23768;-64
2023/06/18 01:10:43;;;;;;;35.80;18.20;;;;;;;13.77;100.00;98633.75;136080;1274;22544;-63
2023/06/18 01:13:45;;;;;;;27.20;15.50;;;;;;;13.69;100.00;98633.13;136017;1274;22543;-61
2023/06/18 01:16:48;;;;;;;;;;;;;;;13.34;100.00;98631.52;136120;1274;22494;-63
2023/06/18 01:19:51;;;;;;;29.10;13.80;;;;;;;13.24;100.00;98631.27;136099;1274;24263;-58
2023/06/18 01:22:57;;;;;;;29.60;15.50;;;;;;;13.10;100.00;98623.96;136099;1274;25374;-60
2023/06/18 01:26:00;;;;;;;31.20;17.00;;;;;;;13.11;100.00;98624.13;136058;1274;22520;-60
2023/06/18 01:29:03;;;;;;;30.50;16.30;;;;;;;13.38;100.00;98622.64;136124;1274;22579;-59
2023/06/18 01:32:05;;;;;;;29.60;16.10;;;;;;;13.25;100.00;98629.44;136067;1274;24343;-60
2023/06/18 01:35:08;;;;;;;;;;;;;;;13.21;100.00;98631.45;136092;1274;22523;-61
2023/06/18 01:38:11;;;;;;;29.00;14.90;;;;;;;13.34;100.00;98635.73;136122;1274;22524;-60
2023/06/18 01:41:13;;;;;;;30.90;14.00;;;;;;;13.38;100.00;98635.50;136092;1274;22525;-59
2023/06/18 01:44:18;;;;;;;;;;;;;;;13.21;100.00;98632.84;136067;1274;22515;-58
2023/06/18 01:47:21;;;;;;;29.20;15.30;;;;;;;12.97;100.00;98636.08;136116;1274;22546;-58
2023/06/18 01:50:23;;;;;;;28.40;15.20;;;;;;;12.93;100.00;98636.30;136081;1274;23130;-59
2023/06/18 01:53:26;;;;;;;;;;;;;;;12.83;100.00;98635.63;136018;1274;22513;-58
2023/06/18 01:56:29;;;;;;;28.20;14.70;;;;;;;12.77;100.00;98638.91;136117;1274;22636;-56
2023/06/18 01:59:32;;;;;;;27.00;14.30;;;;;;;12.76;100.00;98639.36;136107;1274;22642;-58
2023/06/18 02:02:34;;;;;;;26.70;14.10;;;;;;;12.71;100.00;98638.31;136088;1274;24273;-59
2023/06/18 02:05:37;;;;;;;;;;;;;;;12.72;100.00;98638.02;136112;1274;22499;-58
2023/06/18 02:08:39;;;;;;;33.70;17.00;;;;;;;12.71;100.00;98634.59;136090;1274;22571;-58
2023/06/18 02:11:41;;;;;;;;;;;;;;;12.68;100.00;98637.49;136115;1274;24008;-56
2023/06/18 02:14:44;;;;;;;30.60;16.10;;;;;;;12.64;100.00;98637.91;136054;1274;22524;-59
2023/06/18 02:17:46;;;;;;;32.60;17.80;;;;;;;12.60;100.00;98636.59;136098;1274;22514;-57
2023/06/18 02:20:50;;;;;;;30.80;17.10;;;;;;;12.55;100.00;98638.20;136142;1274;22557;-56
2023/06/18 02:23:52;;;;;;;22.60;9.60;;;;;;;12.53;100.00;98640.64;136024;1274;22542;-64
2023/06/18 02:26:55;;;;;;;;;;;;;;;12.54;100.00;98641.45;136114;1257;22521;-63
2023/06/18 02:29:57;;;;;;;27.10;13.00;;;;;;;12.47;100.00;98645.13;136059;1274;22514;-62
2023/06/18 02:33:00;;;;;;;26.60;13.10;;;;;;;12.48;100.00;98645.23;136108;1274;22542;-63
2023/06/18 02:36:03;;;;;;;28.40;12.40;;;;;;;12.44;100.00;98646.66;136060;1274;22517;-64
2023/06/18 02:39:05;;;;;;;;;;;;;;;12.50;100.00;98644.86;136134;1274;22525;-62
2023/06/18 02:42:09;;;;;;;32.00;16.10;;;;;;;12.53;100.00;98651.86;136083;1274;22513;-63
2023/06/18 02:45:13;;;;;;;28.90;16.00;;;;;;;12.53;100.00;98653.42;136035;1274;22535;-63
2023/06/18 02:48:15;;;;;;;28.20;14.30;;;;;;;12.54;100.00;98651.79;136146;1274;22641;-64
2023/06/18 02:51:18;;;;;;;;;;;;;;;12.56;100.00;98653.73;136148;1274;25356;-65
2023/06/18 02:54:21;;;;;;;25.10;11.00;;;;;;;12.56;100.00;98655.71;136072;1274;22521;-63
2023/06/18 02:57:23;;;;;;;27.60;12.90;;;;;;;12.58;100.00;98651.48;136035;1274;22536;-64
2023/06/18 03:00:25;;;;;;;;;;;;;;;12.68;100.00;98648.65;136145;1274;22506;-63
2023/06/18 03:03:28;;;;;;;27.60;14.30;;;;;;;12.69;100.00;98647.05;136093;1274;22526;-65
2023/06/18 03:06:31;;;;;;;27.80;14.60;;;;;;;12.75;100.00;98651.36;136113;1274;22519;-64
2023/06/18 03:09:33;;;;;;;25.30;11.80;;;;;;;12.87;100.00;98656.45;136161;1274;22686;-64
2023/06/18 03:12:35;;;;;;;;;;;;;;;12.82;100.00;98661.66;135996;1274;22513;-62
2023/06/18 03:15:38;;;;;;;23.70;12.70;;;;;;;12.68;100.00;98664.83;136111;1274;22519;-60
2023/06/18 03:18:40;;;;;;;24.50;11.70;;;;;;;12.60;100.00;98671.20;135937;1274;22704;-57
2023/06/18 03:21:43;;;;;;;;;;;;;;;12.67;100.00;98670.17;136097;1274;22504;-58
2023/06/18 03:24:45;;;;;;;31.80;15.70;;;;;;;12.77;100.00;98662.45;136111;1254;22538;-59
2023/06/18 03:27:48;;;;;;;30.10;15.20;;;;;;;13.01;100.00;98666.14;136033;1274;22517;-57
2023/06/18 03:30:51;;;;;;;33.30;17.40;;;;;;;13.19;100.00;98669.84;136011;1269;22581;-58
2023/06/18 03:33:53;;;;;;;33.10;17.30;;;;;;;13.48;100.00;98672.34;136073;1269;22533;-58
2023/06/18 03:37:00;;;;;;;30.50;16.30;;;;;;;13.69;100.00;98676.73;136080;1275;24242;-58
2023/06/18 03:40:03;;;;;;;35.50;16.90;;;;;;;13.88;100.00;98680.86;136023;1275;25608;-58
2023/06/18 03:43:06;;;;;;;32.70;17.20;;;;;;;14.01;100.00;98684.49;136085;1275;22513;-56
2023/06/18 03:46:08;;;;;;;32.40;17.50;;;;;;;14.19;100.00;98684.99;136055;1275;22538;-56
2023/06/18 03:49:11;;;;;;;31.10;16.50;;;;;;;14.39;100.00;98684.82;136006;1275;22515;-59
2023/06/18 03:52:14;;;;;;;31.40;17.60;;;;;;;14.57;100.00;98689.07;136033;1270;22527;-59
2023/06/18 03:55:17;;;;;;;33.50;18.50;;;;;;;14.76;100.00;98690.27;136054;1275;22539;-56
2023/06/18 03:58:19;;;;;;;30.40;16.80;;;;;;;14.92;100.00;98688.56;136065;1275;25491;-59
2023/06/18 04:01:22;;;;;;;32.70;17.80;;;;;;;15.07;100.00;98692.87;136020;1275;22527;-58
2023/06/18 04:04:25;;;;;;;30.40;17.80;;;;;;;15.12;100.00;98686.60;135960;1270;22634;-64
2023/06/18 04:07:28;;;;;;;33.60;19.10;;;;;;;15.35;100.00;98685.09;136064;1275;22514;-64
2023/06/18 04:10:30;;;;;;;28.80;16.60;;;;;;;15.37;100.00;98684.61;136077;1257;22510;-62
2023/06/18 04:13:32;;;;;;;;;;;;;;;15.37;100.00;98689.11;136070;1275;22548;-64
2023/06/18 04:16:35;;;;;;;33.40;17.50;;;;;;;15.54;100.00;98690.92;136087;1260;22523;-62
2023/06/18 04:19:37;;;;;;;30.20;17.00;;;;;;;15.68;100.00;98690.48;136060;1275;22545;-60
2023/06/18 04:22:40;;;;;;;29.90;17.00;;;;;;;15.70;100.00;98694.89;136089;1272;22520;-61
2023/06/18 04:25:43;;;;;;;29.30;15.90;;;;;;;15.81;100.00;98700.00;136108;1275;22678;-62
2023/06/18 04:28:46;;;;;;;29.80;17.50;;;;;;;15.88;100.00;98702.88;136051;1275;22531;-61
2023/06/18 04:31:48;;;;;;;31.40;16.70;;;;;;;16.00;100.00;98699.30;136089;1275;22516;-67
2023/06/18 04:34:51;;;;;;;32.40;17.60;;;;;;;16.06;100.00;98700.86;136076;1275;23874;-64
2023/06/18 04:37:54;;;;;;;30.20;16.30;;;;;;;16.07;100.00;98702.55;136057;1275;22518;-61
2023/06/18 04:40:56;;;;;;;29.50;16.30;;;;;;;16.14;100.00;98705.96;136068;1275;22613;-62
2023/06/18 04:43:59;;;;;;;28.60;15.50;;;;;;;16.26;100.00;98706.19;136088;1258;22655;-61
2023/06/18 04:47:03;;;;;;;29.70;16.00;;;;;;;16.29;100.00;98707.30;136089;1275;22531;-60
2023/06/18 04:50:06;;;;;;;28.10;15.20;;;;;;;16.42;100.00;98714.34;136083;1275;22523;-62
2023/06/18 04:53:09;;;;;;;29.60;15.90;;;;;;;16.53;100.00;98710.60;136051;1275;22544;-61
2023/06/18 04:56:12;;;;;;;29.90;16.10;;;;;;;16.70;100.00;98710.84;135996;1272;22516;-66
2023/06/18 04:59:16;;;;;;;30.70;15.70;;;;;;;16.71;100.00;98723.09;136022;1276;22547;-63
2023/06/18 05:02:18;;;;;;;28.70;15.90;;;;;;;16.61;100.00;98731.20;135949;1276;23893;-63
2023/06/18 05:05:21;;;;;;;28.80;15.10;;;;;;;16.66;100.00;98728.00;135955;1276;22639;-61
2023/06/18 05:08:23;;;;;;;27.90;14.40;;;;;;;16.77;100.00;98726.86;135916;1276;22622;-60
2023/06/18 05:11:26;;;;;;;;;;;;;;;16.87;100.00;98734.95;135950;1276;22511;-63
2023/06/18 05:14:28;;;;;;;28.50;14.10;;;;;;;17.05;100.00;98739.98;135921;1276;22552;-63
2023/06/18 05:17:31;;;;;;;;;;;;;;;17.17;100.00;98742.09;136005;1276;22501;-63
2023/06/18 05:20:33;;;;;;;30.50;15.00;;;;;;;17.32;100.00;98736.97;135976;1276;24905;-61
2023/06/18 05:23:35;;;;;;;28.50;15.30;;;;;;;17.32;100.00;98735.27;135982;1276;22530;-63
2023/06/18 05:26:38;;;;;;;28.10;14.00;;;;;;;17.39;100.00;98739.73;135911;1276;22549;-59
2023/06/18 05:29:40;;;;;;;29.00;13.90;;;;;;;17.29;100.00;98741.81;135911;1276;25323;-64
2023/06/18 05:32:43;;;;;;;29.70;14.70;;;;;;;17.48;100.00;98743.30;135889;1276;24367;-60
2023/06/18 05:35:45;;;;;;;;;;;;;;;17.85;100.00;98751.33;135947;1276;22516;-65
2023/06/18 05:38:48;;;;;;;27.10;13.50;;;;;;;18.05;100.00;98757.23;135910;1276;22546;-57
2023/06/18 05:41:51;;;;;;;26.60;14.20;;;;;;;18.18;100.00;98761.67;135949;1276;22538;-59
2023/06/18 05:44:54;;;;;;;25.20;13.50;;;;;;;18.23;100.00;98764.79;135950;1276;22985;-61
2023/06/18 05:47:57;;;;;;;25.00;13.60;;;;;;;18.20;100.00;98763.46;135977;1276;22582;-62
2023/06/18 05:50:59;;;;;;;27.80;13.50;;;;;;;18.16;100.00;98760.11;135940;1258;22530;-60
2023/06/18 05:54:02;;;;;;;27.00;12.80;;;;;;;18.17;100.00;98759.90;135975;1260;22550;-60
2023/06/18 05:57:05;;;;;;;24.90;13.00;;;;;;;18.28;100.00;98762.20;135971;1276;22547;-62
2023/06/18 06:00:07;;;;;;;26.00;13.80;;;;;;;18.57;100.00;98767.30;135873;1276;22537;-60
2023/06/18 06:03:10;;;;;;;23.80;12.60;;;;;;;18.66;100.00;98767.52;135833;1276;22524;-61
2023/06/18 06:06:13;;;;;;;25.70;13.40;;;;;;;18.59;100.00;98766.41;135877;1276;22536;-60
2023/06/18 06:09:15;;;;;;;25.30;13.30;;;;;;;18.69;100.00;98772.45;135849;1276;22539;-58
2023/06/18 06:12:18;;;;;;;25.30;13.20;;;;;;;18.82;100.00;98781.31;135810;1276;22569;-56
2023/06/18 06:15:20;;;;;;;24.60;12.30;;;;;;;18.89;100.00;98785.11;135919;1276;22545;-56
2023/06/18 06:18:23;;;;;;;24.50;12.30;;;;;;;19.05;100.00;98782.88;136014;1276;22524;-57
2023/06/18 06:21:25;;;;;;;26.20;12.90;;;;;;;19.09;100.00;98783.41;135991;1276;22523;-57
2023/06/18 06:24:28;;;;;;;24.20;12.70;;;;;;;19.19;100.00;98785.64;135908;1276;24191;-58
2023/06/18 06:27:30;;;;;;;25.60;12.60;;;;;;;19.35;100.00;98782.67;135937;1276;22554;-59
2023/06/18 06:30:33;;;;;;;25.50;12.80;;;;;;;19.47;100.00;98783.10;135948;1276;22534;-56
2023/06/18 06:33:36;;;;;;;25.60;12.70;;;;;;;19.51;100.00;98786.20;135945;1276;22653;-56
2023/06/18 06:36:39;;;;;;;26.00;12.90;;;;;;;19.48;100.00;98789.55;135948;1276;22531;-64
2023/06/18 06:39:41;;;;;;;23.40;11.60;;;;;;;19.51;100.00;98786.02;135950;1276;22534;-62
2023/06/18 06:42:43;;;;;;;24.10;12.00;;;;;;;19.66;100.00;98785.23;135976;1259;22517;-65
2023/06/18 06:45:46;;;;;;;25.70;13.10;;;;;;;19.96;100.00;98783.42;135925;1260;22667;-62
2023/06/18 06:48:48;;;;;;;25.90;12.70;;;;;;;20.12;100.00;98784.30;135949;1276;22547;-63
2023/06/18 06:51:51;;;;;;;23.90;12.60;;;;;;;20.33;100.00;98780.67;135972;1276;22531;-63
2023/06/18 06:54:53;;;;;;;26.00;12.30;;;;;;;20.42;100.00;98785.31;135943;1276;23118;-63
2023/06/18 06:57:56;;;;;;;24.10;11.70;;;;;;;20.73;100.00;98785.83;135997;1276;22546;-63
2023/06/18 07:00:59;;;;;;;23.30;12.30;;;;;;;21.11;99.72;98785.98;135951;1276;22520;-64
2023/06/18 07:04:01;;;;;;;25.50;12.00;;;;;;;21.27;99.34;98779.72;135864;1276;24361;-63
2023/06/18 07:07:03;;;;;;;24.60;12.00;;;;;;;21.58;99.48;98781.37;135929;1276;22520;-61
2023/06/18 07:10:06;;;;;;;23.00;11.30;;;;;;;21.93;97.16;98777.07;135951;1276;22629;-62
2023/06/18 07:13:08;;;;;;;21.50;10.20;;;;;;;22.25;93.99;98779.45;135979;1276;22554;-60
2023/06/18 07:16:11;;;;;;;24.00;10.90;;;;;;;22.40;91.90;98781.39;135952;1276;22750;-62
2023/06/18 07:19:13;;;;;;;22.90;10.60;;;;;;;22.85;92.71;98780.12;135889;1276;23041;-59
2023/06/18 07:22:16;;;;;;;20.20;9.20;;;;;;;23.20;81.75;98780.32;135885;1276;22531;-57
2023/06/18 07:25:18;;;;;;;20.40;9.10;;;;;;;23.01;78.33;98781.19;135699;1276;22539;-58
2023/06/18 07:28:21;;;;;;;19.10;7.60;;;;;;;23.02;80.70;98781.09;135585;1276;347873;-57
2023/06/18 07:31:23;;;;;;;20.80;8.50;;;;;;;23.17;78.61;98781.27;135950;1276;22565;-57
2023/06/18 07:34:25;;;;;;;21.60;9.60;;;;;;;23.37;76.89;98778.36;135935;1276;22527;-58
2023/06/18 07:37:28;;;;;;;20.80;8.90;;;;;;;23.44;73.83;98778.69;135969;1276;22533;-57
2023/06/18 07:40:33;;;;;;;20.50;9.10;;;;;;;23.50;77.51;98768.92;135920;1276;22766;-57
2023/06/18 07:43:35;;;;;;;22.90;8.90;;;;;;;23.97;76.07;98767.51;135979;1266;22534;-56
2023/06/18 07:46:38;;;;;;;22.00;8.80;;;;;;;24.20;72.13;98768.59;135931;1276;22534;-58
2023/06/18 07:49:40;;;;;;;20.50;9.20;;;;;;;24.26;73.18;98765.92;135948;1276;22524;-57
2023/06/18 07:52:42;;;;;;;20.60;8.90;;;;;;;24.34;65.77;98769.42;135930;1276;22542;-57
2023/06/18 07:55:45;;;;;;;20.00;8.80;;;;;;;24.15;64.71;98772.02;135941;1276;22697;-56
2023/06/18 07:58:47;;;;;;;22.70;9.30;;;;;;;23.91;66.17;98771.84;135948;1276;22584;-57
2023/06/18 08:01:50;;;;;;;19.80;8.50;;;;;;;24.43;66.72;98766.75;135915;1260;24260;-59
2023/06/18 08:04:52;;;;;;;21.00;8.80;;;;;;;24.56;68.54;98765.77;135952;1276;22646;-61
2023/06/18 08:07:54;;;;;;;19.60;8.60;;;;;;;25.19;67.66;98767.03;135941;1276;24244;-61
2023/06/18 08:10:57;;;;;;;20.20;8.60;;;;;;;25.66;64.23;98767.08;135915;1276;22564;-58
2023/06/18 08:13:59;;;;;;;21.40;8.60;;;;;;;25.75;61.91;98767.20;135949;1276;22554;-62
2023/06/18 08:17:02;;;;;;;20.50;8.50;;;;;;;25.73;59.81;98764.86;135994;1276;22534;-59
2023/06/18 08:20:04;;;;;;;22.10;8.40;;;;;;;25.77;58.57;98764.20;135975;1276;22514;-60
2023/06/18 08:23:07;;;;;;;20.00;8.10;;;;;;;25.63;58.35;98761.64;135979;1276;22543;-58
2023/06/18 08:26:09;;;;;;;20.10;7.80;;;;;;;25.86;59.47;98760.85;135948;1276;22541;-58
2023/06/18 08:29:11;;;;;;;19.90;8.20;;;;;;;25.81;57.21;98762.22;135972;1276;22527;-59
2023/06/18 08:32:14;;;;;;;20.80;8.30;;;;;;;25.93;57.66;98757.94;135962;1276;23881;-60
2023/06/18 08:35:16;;;;;;;20.20;8.20;;;;;;;26.04;57.97;98760.64;135976;1276;22555;-58
2023/06/18 08:38:19;;;;;;;18.80;7.70;;;;;;;26.68;59.24;98758.20;135984;1276;22541;-62
2023/06/18 08:41:21;;;;;;;19.30;7.40;;;;;;;27.34;56.21;98759.54;135995;1276;22547;-60
2023/06/18 08:44:25;;;;;;;17.40;6.30;;;;;;;27.53;54.70;98756.77;135969;1276;22607;-61
2023/06/18 08:47:27;;;;;;;18.00;6.70;;;;;;;27.65;52.64;98752.56;135971;1276;24190;-64
2023/06/18 08:50:29;;;;;;;16.00;5.80;;;;;;;27.73;49.89;98754.23;135930;1276;22541;-57
2023/06/18 08:53:32;;;;;;;15.50;5.80;;;;;;;27.62;51.65;98751.89;135946;1260;22533;-57
2023/06/18 08:56:34;;;;;;;13.90;5.50;;;;;;;27.94;51.53;98748.77;135935;1276;25570;-63
2023/06/18 08:59:37;;;;;;;16.30;5.90;;;;;;;28.67;50.92;98745.09;135896;1276;22548;-58
2023/06/18 09:02:39;;;;;;;14.40;5.50;;;;;;;29.04;43.48;98745.53;135970;1276;22524;-59
2023/06/18 09:05:42;;;;;;;15.00;5.50;;;;;;;28.47;45.10;98745.63;135897;1276;22530;-57
2023/06/18 09:08:44;;;;;;;13.60;4.90;;;;;;;27.62;46.00;98753.84;135940;1276;22580;-58
2023/06/18 09:11:47;;;;;;;13.90;5.00;;;;;;;27.12;47.87;98749.29;135938;1276;22534;-59
2023/06/18 09:14:49;;;;;;;14.40;5.00;;;;;;;26.88;46.94;98751.69;135974;1276;22575;-58
2023/06/18 09:17:52;;;;;;;14.80;5.10;;;;;;;26.37;47.53;98752.02;135980;1276;22527;-57
2023/06/18 09:20:54;;;;;;;12.90;4.80;;;;;;;26.04;47.80;98749.73;135947;1276;22547;-61
2023/06/18 09:23:57;;;;;;;13.70;5.10;;;;;;;25.76;48.62;98750.77;135929;1276;22562;-57
2023/06/18 09:26:59;;;;;;;13.80;4.80;;;;;;;25.59;48.88;98745.29;135921;1259;22538;-59
2023/06/18 09:30:03;;;;;;;12.40;4.70;;;;;;;25.66;48.69;98739.02;135910;1276;22570;-59
2023/06/18 09:33:06;;;;;;;11.60;4.60;;;;;;;26.62;49.72;98731.34;135904;1276;22544;-58
2023/06/18 09:36:08;;;;;;;12.60;4.70;;;;;;;27.38;46.31;98729.90;135863;1276;22526;-60
2023/06/18 09:39:11;;;;;;;12.10;4.50;;;;;;;27.75;45.01;98730.52;135889;1276;22535;-58
2023/06/18 09:42:14;;;;;;;12.20;4.40;;;;;;;28.02;45.76;98729.68;135943;1253;22534;-59
2023/06/18 09:45:16;;;;;;;14.20;4.70;;;;;;;28.35;43.40;98725.54;135948;1276;22568;-58
2023/06/18 09:48:18;;;;;;;12.20;4.50;;;;;;;28.35;43.00;98718.27;135957;1276;22525;-59
2023/06/18 09:51:21;;;;;;;11.60;4.30;;;;;;;28.42;42.51;98717.05;135950;1275;22637;-59
2023/06/18 09:54:24;;;;;;;9.70;3.80;;;;;;;28.04;40.11;98725.78;135927;1276;22546;-59
2023/06/18 09:57:26;;;;;;;10.70;4.10;;;;;;;27.57;41.96;98722.42;135943;1276;22597;-57
2023/06/18 10:00:28;;;;;;;10.50;4.10;;;;;;;28.02;43.34;98713.77;135928;1276;25370;-58
2023/06/18 10:03:31;;;;;;;13.10;4.30;;;;;;;28.13;41.14;98716.49;135900;1276;22554;-58
2023/06/18 10:06:33;;;;;;;10.10;4.40;;;;;;;27.81;43.47;98714.14;135946;1276;22535;-57
2023/06/18 10:09:36;;;;;;;12.20;4.40;;;;;;;28.58;43.29;98704.40;135913;1276;22531;-59
2023/06/18 10:12:38;;;;;;;11.50;4.40;;;;;;;28.87;42.18;98704.22;135941;1276;22551;-62
2023/06/18 10:15:41;;;;;;;14.00;5.00;;;;;;;28.50;41.21;98706.87;135951;1276;22538;-58
2023/06/18 10:18:43;;;;;;;12.80;4.50;;;;;;;28.11;42.27;98708.13;135948;1276;22540;-61
2023/06/18 10:21:46;;;;;;;10.70;4.20;;;;;;;28.75;43.33;98709.92;135898;1276;22633;-58
2023/06/18 10:24:49;;;;;;;15.40;4.70;;;;;;;29.67;42.92;98702.37;135914;1276;24036;-62
2023/06/18 10:27:51;;;;;;;11.80;4.30;;;;;;;30.28;39.47;98707.52;135885;1276;22643;-60
2023/06/18 10:30:54;;;;;;;10.40;4.10;;;;;;;30.18;39.33;98704.26;135929;1276;22543;-58
2023/06/18 10:33:56;;;;;;;9.30;3.70;;;;;;;30.36;37.67;98706.29;135938;1276;22588;-58
2023/06/18 10:36:58;;;;;;;9.70;3.60;;;;;;;29.77;36.66;98703.21;135934;1276;22534;-57
2023/06/18 10:40:01;;;;;;;10.40;3.80;;;;;;;29.44;38.66;98702.23;135921;1276;23903;-57
2023/06/18 10:43:04;;;;;;;10.50;4.00;;;;;;;29.61;37.53;98703.14;135916;1276;22534;-58
2023/06/18 10:46:06;;;;;;;9.00;3.80;;;;;;;29.14;37.23;98706.85;135935;1276;22546;-57
2023/06/18 10:49:08;;;;;;;12.50;4.10;;;;;;;29.17;36.99;98704.63;135916;1276;22542;-57
2023/06/18 10:52:12;;;;;;;14.00;4.40;;;;;;;29.44;39.34;98703.92;135892;1276;22629;-57
2023/06/18 10:55:14;;;;;;;11.20;4.30;;;;;;;30.09;39.05;98699.26;135917;1276;25350;-63
2023/06/18 10:58:18;;;;;;;10.10;4.10;;;;;;;30.67;39.25;98696.83;135904;1276;22538;-58
2023/06/18 11:01:21;;;;;;;11.70;4.30;;;;;;;30.71;37.68;98693.73;135941;1276;22525;-61
2023/06/18 11:04:23;;;;;;;11.60;4.40;;;;;;;30.08;37.45;98692.78;135934;1276;25527;-63
2023/06/18 11:07:27;;;;;;;16.50;4.90;;;;;;;29.27;38.38;98694.42;135903;1276;24378;-57
2023/06/18 11:10:29;;;;;;;13.20;4.90;;;;;;;29.20;39.20;98693.44;135883;1276;22542;-57
2023/06/18 11:13:33;;;;;;;14.20;4.50;;;;;;;29.44;38.24;98696.37;135924;1276;22530;-61
2023/06/18 11:16:35;;;;;;;11.10;4.50;;;;;;;29.33;38.62;98694.27;135928;1276;22537;-57
2023/06/18 11:19:37;;;;;;;11.00;4.40;;;;;;;29.84;38.92;98692.60;135912;1276;22539;-62
2023/06/18 11:22:40;;;;;;;12.10;4.20;;;;;;;30.21;37.41;98694.66;135890;1266;22520;-60
2023/06/18 11:25:42;;;;;;;12.80;4.00;;;;;;;30.21;37.98;98690.83;135873;1276;22663;-61
2023/06/18 11:28:45;;;;;;;11.90;4.40;;;;;;;30.05;37.08;98696.14;135879;1276;25570;-61
2023/06/18 11:31:47;;;;;;;13.00;4.60;;;;;;;29.50;37.92;98694.23;135921;1276;22659;-56
2023/06/18 11:34:50;;;;;;;18.80;6.10;;;;;;;28.82;38.37;98703.77;135966;1276;22628;-56
2023/06/18 11:37:52;;;;;;;12.50;4.50;;;;;;;28.37;39.75;98703.41;135876;1276;22617;-56
2023/06/18 11:40:54;;;;;;;14.90;4.90;;;;;;;28.25;39.75;98705.36;135908;1276;22554;-57
2023/06/18 11:43:57;;;;;;;13.20;4.70;;;;;;;27.86;39.83;98709.25;135886;1276;25375;-58
2023/06/18 11:47:00;;;;;;;12.50;4.80;;;;;;;27.73;40.62;98707.27;135881;1276;22538;-56
2023/06/18 11:50:02;;;;;;;11.60;4.50;;;;;;;27.49;39.68;98711.19;135929;1276;25392;-57
2023/06/18 11:53:05;;;;;;;13.00;4.70;;;;;;;27.26;41.28;98707.29;135941;1276;22534;-58
2023/06/18 11:56:07;;;;;;;14.30;4.70;;;;;;;27.51;41.33;98708.67;135917;1276;22629;-57
2023/06/18 11:59:10;;;;;;;11.80;4.40;;;;;;;27.78;41.00;98707.09;135937;1276;25458;-59
2023/06/18 12:02:12;;;;;;;11.30;4.20;;;;;;;27.70;40.70;98708.35;135915;1276;25683;-57
2023/06/18 12:05:15;;;;;;;11.40;4.40;;;;;;;27.68;40.20;98711.53;135915;1276;22527;-56
2023/06/18 12:08:18;;;;;;;10.10;4.00;;;;;;;27.77;39.99;98702.12;135895;1276;22684;-58
2023/06/18 12:11:20;;;;;;;10.30;4.10;;;;;;;27.56;39.26;98698.77;135937;1276;23980;-57
2023/06/18 12:14:23;;;;;;;10.80;4.20;;;;;;;27.56;39.36;98697.20;135853;1276;25389;-57
2023/06/18 12:17:25;;;;;;;10.70;3.90;;;;;;;27.48;38.14;98697.48;135913;1276;22537;-57
2023/06/18 12:20:27;;;;;;;10.40;4.10;;;;;;;27.45;39.34;98697.19;135940;1276;22562;-58
2023/06/18 12:23:30;;;;;;;10.30;3.80;;;;;;;27.60;40.03;98693.02;135920;1276;22553;-58
2023/06/18 12:26:33;;;;;;;9.20;3.90;;;;;;;28.39;38.83;98684.11;135932;1276;22556;-61
2023/06/18 12:29:35;;;;;;;9.80;3.70;;;;;;;28.98;37.17;98683.21;135924;1276;22545;-61
2023/06/18 12:32:37;;;;;;;11.00;4.20;;;;;;;28.77;36.40;98683.08;135913;1276;22540;-60
2023/06/18 12:35:41;;;;;;;9.80;4.00;;;;;;;28.15;37.68;98682.64;135917;1276;22527;-58
2023/06/18 12:38:45;;;;;;;10.70;4.00;;;;;;;27.56;38.31;98689.08;135930;1276;22537;-59
2023/06/18 12:41:47;;;;;;;11.00;4.30;;;;;;;27.42;40.00;98682.06;135908;1276;22638;-62
2023/06/18 12:44:50;;;;;;;11.70;4.40;;;;;;;27.59;39.42;98676.60;135927;1276;22530;-58
2023/06/18 12:47:52;;;;;;;11.70;4.70;;;;;;;27.57;40.28;98672.20;135889;1276;22531;-59
2023/06/18 12:50:55;;;;;;;15.10;4.80;;;;;;;28.07;40.32;98669.46;135904;1276;26430;-64
2023/06/18 12:53:58;;;;;;;12.60;4.60;;;;;;;28.54;38.94;98675.64;135964;1276;22576;-64
2023/06/18 12:57:00;;;;;;;11.50;4.80;;;;;;;28.44;38.81;98681.52;135924;1276;22568;-58
2023/06/18 13:00:03;;;;;;;11.40;4.60;;;;;;;28.60;41.01;98685.49;135938;1276;22531;-58
2023/06/18 13:03:06;;;;;;;12.20;4.40;;;;;;;29.26;37.72;98685.52;135911;1263;22527;-63
2023/06/18 13:06:08;;;;;;;12.40;4.90;;;;;;;29.16;36.79;98683.87;135904;1276;22546;-60
2023/06/18 13:09:11;;;;;;;12.80;4.60;;;;;;;28.97;38.12;98681.64;135931;1276;24310;-59
2023/06/18 13:12:16;;;;;;;13.40;4.80;;;;;;;29.22;38.46;98678.89;135925;1267;22543;-61
2023/06/18 13:15:18;;;;;;;14.70;4.80;;;;;;;29.30;37.79;98681.04;135937;1276;22573;-61
2023/06/18 13:18:21;;;;;;;14.50;4.90;;;;;;;28.63;38.24;98686.29;135930;1276;22528;-59
2023/06/18 13:21:24;;;;;;;11.40;4.70;;;;;;;28.43;38.53;98681.20;135917;1276;22556;-58
2023/06/18 13:24:27;;;;;;;11.00;4.40;;;;;;;29.13;38.80;98674.04;135963;1276;22551;-59
2023/06/18 13:27:30;;;;;;;12.40;5.00;;;;;;;29.93;37.68;98670.92;135914;1276;22543;-59
2023/06/18 13:30:32;;;;;;;12.70;4.90;;;;;;;30.17;36.20;98673.88;135904;1276;22551;-59
2023/06/18 13:33:34;;;;;;;11.20;4.30;;;;;;;30.28;36.18;98679.56;135926;1276;22536;-62
2023/06/18 13:36:37;;;;;;;13.20;4.50;;;;;;;30.12;35.76;98677.23;135968;1276;22539;-56
2023/06/18 13:39:40;;;;;;;11.20;4.50;;;;;;;29.96;35.97;98675.02;135968;1276;22546;-57
2023/06/18 13:42:42;;;;;;;12.80;4.30;;;;;;;30.02;36.50;98674.23;135865;1276;22545;-57
2023/06/18 13:45:45;;;;;;;12.10;4.80;;;;;;;29.62;36.19;98672.58;135911;1276;22554;-57
2023/06/18 13:48:47;;;;;;;12.70;4.90;;;;;;;29.56;37.07;98672.91;135981;1276;22527;-60
2023/06/18 13:51:50;;;;;;;13.60;4.90;;;;;;;29.21;37.13;98679.00;135946;1276;22524;-59
2023/06/18 13:54:52;;;;;;;15.10;5.10;;;;;;;28.03;38.70;98693.44;135923;1276;22538;-59
2023/06/18 13:57:54;;;;;;;14.70;5.30;;;;;;;27.05;41.22;98702.25;135896;1276;22640;-60